createdAt,value
2022-08-09T00:01:17.059Z,64
2022-08-09T00:07:02.956Z,70
2022-08-09T00:12:53.786Z,68
2022-08-09T00:18:38.003Z,76
2022-08-09T00:24:21.006Z,76
2022-08-09T00:30:29.440Z,70
2022-08-09T00:36:09.905Z,76
2022-08-09T00:44:37.831Z,78
2022-08-09T00:50:19.120Z,72
2022-08-09T00:56:10.393Z,66
2022-08-09T01:08:02.003Z,72
2022-08-09T01:14:02.315Z,66
2022-08-09T01:20:03.841Z,72
2022-08-09T01:25:52.415Z,58
2022-08-09T01:32:46.418Z,70
2022-08-09T01:38:29.560Z,66
2022-08-09T01:44:10.761Z,66
2022-08-09T01:49:55.235Z,58
2022-08-09T01:55:42.994Z,76
2022-08-09T02:02:02.283Z,66
2022-08-09T02:09:02.871Z,66
2022-08-09T02:14:55.756Z,56
2022-08-09T02:20:36.489Z,70
2022-08-09T02:26:28.033Z,68
2022-08-09T02:32:08.808Z,56
2022-08-09T02:37:49.526Z,64
2022-08-09T02:43:55.920Z,76
2022-08-09T02:49:41.983Z,74
2022-08-09T02:55:22.155Z,70
2022-08-09T03:01:15.253Z,66
2022-08-09T03:07:25.837Z,64
2022-08-09T03:13:16.003Z,60
2022-08-09T03:32:21.132Z,70
2022-08-09T03:38:03.343Z,58
2022-08-09T03:49:36.226Z,72
2022-08-09T03:55:18.002Z,66
2022-08-09T04:00:59.358Z,58
2022-08-09T04:06:50.381Z,56
2022-08-09T04:12:33.438Z,54
2022-08-09T04:18:22.329Z,70
2022-08-09T04:24:05.726Z,66
2022-08-09T04:29:51.970Z,66
2022-08-09T04:35:33.687Z,70
2022-08-09T04:41:13.778Z,72
2022-08-09T04:47:06.758Z,64
2022-08-09T04:52:50.844Z,70
2022-08-09T04:58:42.080Z,58
2022-08-09T05:04:33.309Z,64
2022-08-09T05:15:57.523Z,62
2022-08-09T05:21:56.862Z,62
2022-08-09T05:28:01.778Z,52
2022-08-09T05:33:43.187Z,62
2022-08-09T05:40:18.996Z,60
2022-08-09T05:46:12.173Z,74
2022-08-09T05:52:04.536Z,50
2022-08-09T05:58:07.557Z,70
2022-08-09T06:04:46.587Z,62
2022-08-09T06:11:18.476Z,62
2022-08-09T06:17:22.368Z,76
2022-08-09T06:23:03.503Z,70
2022-08-09T06:28:44.442Z,62
2022-08-09T06:34:39.305Z,66
2022-08-09T06:41:03.785Z,64
2022-08-09T06:46:46.154Z,70
2022-08-09T06:52:29.252Z,68
2022-08-09T07:01:00.738Z,80
2022-08-09T07:08:10.359Z,70
2022-08-09T07:18:52.022Z,19
2022-08-09T07:24:59.567Z,86
2022-08-09T07:30:43.677Z,36
2022-08-09T07:36:23.983Z,30
2022-08-09T07:42:07.461Z,36
2022-08-09T07:48:30.230Z,18
2022-08-09T07:54:14.760Z,44
2022-08-09T08:00:36.850Z,34
2022-08-09T08:09:35.274Z,46
2022-08-09T08:15:42.802Z,14
2022-08-09T08:21:23.469Z,24
2022-08-09T08:32:54.831Z,22
2022-08-09T08:38:36.839Z,2
2022-08-09T08:44:30.117Z,10
2022-08-09T08:50:19.098Z,2
2022-08-09T08:56:32.940Z,8
2022-08-09T09:02:33.957Z,0
2022-08-09T09:08:42.860Z,2
2022-08-09T09:20:06.663Z,7
2022-08-09T09:26:13.485Z,0
2022-08-09T09:32:35.829Z,2
2022-08-09T09:38:39.184Z,2
2022-08-09T09:44:34.345Z,46
2022-08-09T09:50:27.487Z,0
2022-08-09T09:56:34.441Z,32
2022-08-09T10:02:15.624Z,0
2022-08-09T10:08:32.156Z,0
2022-08-09T10:14:34.973Z,12
2022-08-09T10:26:28.608Z,2
2022-08-09T10:32:46.477Z,0
2022-08-09T10:39:00.856Z,0
2022-08-09T10:44:44.154Z,6
2022-08-09T10:50:33.440Z,10
2022-08-09T10:56:23.596Z,2
2022-08-09T11:04:05.887Z,0
2022-08-09T11:10:16.530Z,0
2022-08-09T11:16:07.434Z,2
2022-08-09T11:22:26.811Z,0
2022-08-09T11:28:57.713Z,0
2022-08-09T11:34:44.033Z,4
2022-08-09T11:40:31.508Z,6
2022-08-09T11:46:12.171Z,0
2022-08-09T11:54:13.852Z,2
2022-08-09T12:00:28.367Z,0
2022-08-09T12:06:08.853Z,4
2022-08-09T12:12:28.949Z,0
2022-08-09T12:18:13.298Z,2
2022-08-09T12:24:19.893Z,4
2022-08-09T14:28:45.029Z,72
2022-08-09T14:34:33.635Z,78
2022-08-09T14:40:14.426Z,82
2022-08-09T14:48:00.161Z,80
2022-08-09T14:53:54.818Z,76
2022-08-09T14:59:39.838Z,80
2022-08-09T15:05:22.251Z,76
2022-08-09T15:11:07.717Z,78
2022-08-09T15:17:05.238Z,92
2022-08-09T15:24:09.526Z,84
2022-08-09T15:31:41.159Z,12
2022-08-09T15:38:17.341Z,8
2022-08-09T15:43:58.377Z,28
2022-08-09T15:50:05.788Z,70
2022-08-09T15:56:31.507Z,88
2022-08-09T16:02:13.858Z,72
2022-08-09T16:07:55.988Z,82
2022-08-09T16:14:13.810Z,78
2022-08-09T16:20:13.039Z,78
2022-08-09T16:26:03.195Z,74
2022-08-09T16:32:35.632Z,76
2022-08-09T16:38:18.427Z,82
2022-08-09T16:44:03.264Z,82
2022-08-09T16:50:40.194Z,80
2022-08-09T16:56:50.634Z,72
2022-08-09T17:02:42.426Z,76
2022-08-09T17:09:47.795Z,74
2022-08-09T17:16:03.060Z,70
2022-08-09T17:21:47.118Z,80
2022-08-09T17:27:32.950Z,80
2022-08-09T17:33:24.194Z,78
2022-08-09T17:39:09.852Z,80
2022-08-09T17:50:38.208Z,72
2022-08-09T17:56:20.594Z,72
2022-08-09T18:02:34.155Z,76
2022-08-09T18:08:16.635Z,74
2022-08-09T18:14:16.463Z,78
2022-08-09T18:21:31.793Z,64
2022-08-09T18:30:50.100Z,70
2022-08-09T18:41:36.005Z,72
2022-08-09T18:47:37.894Z,68
2022-08-09T18:53:19.478Z,76
2022-08-09T18:59:01.790Z,72
2022-08-09T19:06:14.959Z,80
2022-08-09T19:11:58.328Z,74
2022-08-09T19:18:01.094Z,70
2022-08-09T19:26:05.545Z,68
2022-08-09T19:31:52.287Z,76
2022-08-09T19:37:58.391Z,70
2022-08-09T19:44:04.563Z,76
2022-08-09T19:51:01.183Z,74
2022-08-09T19:56:53.538Z,76
2022-08-09T20:04:56.112Z,76
2022-08-09T20:10:39.343Z,80
2022-08-09T20:16:57.526Z,68
2022-08-09T20:22:59.769Z,66
2022-08-09T20:28:50.683Z,70
2022-08-09T20:34:31.423Z,76
2022-08-09T20:40:28.601Z,68
2022-08-09T20:46:46.033Z,82
2022-08-09T20:58:21.644Z,72
2022-08-09T21:06:00.459Z,78
2022-08-09T21:18:31.155Z,66
2022-08-09T21:24:48.340Z,64
2022-08-09T21:30:34.002Z,72
2022-08-09T21:36:29.895Z,72
2022-08-09T21:42:17.596Z,66
2022-08-09T21:48:16.106Z,72
2022-08-09T21:53:59.779Z,74
2022-08-09T21:59:44.575Z,70
2022-08-09T22:05:42.993Z,66
2022-08-09T22:12:32.439Z,76
2022-08-09T22:18:13.836Z,76
2022-08-09T22:24:25.574Z,64
2022-08-09T22:30:08.463Z,66
2022-08-09T22:36:04.916Z,78
2022-08-09T22:41:49.685Z,74
2022-08-09T22:48:51.869Z,64
2022-08-09T22:54:36.128Z,72
2022-08-09T23:00:19.478Z,76
2022-08-09T23:06:01.131Z,76
2022-08-09T23:11:41.851Z,62
2022-08-09T23:17:22.363Z,70
2022-08-09T23:23:02.693Z,72
2022-08-09T23:28:42.810Z,64
2022-08-09T23:34:23.080Z,68
2022-08-09T23:40:03.312Z,72
2022-08-09T23:45:43.630Z,62
2022-08-09T23:51:24.131Z,72
2022-08-09T23:57:04.700Z,70
